createdAt,value
2023-03-20T00:00:58.378Z,3.28
2023-03-20T00:03:45.300Z,3.23
2023-03-20T00:06:24.377Z,3.20
2023-03-20T00:09:11.373Z,3.23
2023-03-20T00:11:55.406Z,3.24
2023-03-20T00:14:42.343Z,3.23
2023-03-20T00:17:30.361Z,3.18
2023-03-20T00:20:22.288Z,3.13
2023-03-20T00:23:03.306Z,3.11
2023-03-20T00:25:52.318Z,3.12
2023-03-20T00:28:44.433Z,3.12
2023-03-20T00:31:36.367Z,3.12
2023-03-20T00:34:19.415Z,3.10
2023-03-20T00:37:06.300Z,3.07
2023-03-20T00:39:40.459Z,3.01
2023-03-20T00:42:32.314Z,2.99
2023-03-20T00:45:05.656Z,2.98
2023-03-20T00:47:54.367Z,2.96
2023-03-20T00:50:32.264Z,2.94
2023-03-20T00:53:19.485Z,2.90
2023-03-20T00:55:52.433Z,2.88
2023-03-20T00:58:39.311Z,2.85
2023-03-20T01:01:13.328Z,2.84
2023-03-20T01:04:00.327Z,2.83
2023-03-20T01:06:33.393Z,2.84
2023-03-20T01:09:20.321Z,2.81
2023-03-20T01:12:00.442Z,2.78
2023-03-20T01:14:48.360Z,2.77
2023-03-20T01:17:34.317Z,2.76
2023-03-20T01:20:24.339Z,2.79
2023-03-20T01:22:57.449Z,2.80
2023-03-20T01:25:45.316Z,2.76
2023-03-20T01:28:30.358Z,2.73
2023-03-20T01:31:17.412Z,2.68
2023-03-20T01:33:51.614Z,2.65
2023-03-20T01:36:38.331Z,2.63
2023-03-20T01:39:19.332Z,2.66
2023-03-20T01:42:07.323Z,2.64
2023-03-20T01:44:42.458Z,2.62
2023-03-20T01:47:32.331Z,2.57
2023-03-20T01:50:34.499Z,2.53
2023-03-20T01:53:25.345Z,2.49
2023-03-20T01:56:02.431Z,2.47
2023-03-20T01:58:53.317Z,2.45
2023-03-20T02:01:39.337Z,2.43
2023-03-20T02:04:38.339Z,2.41
2023-03-20T02:07:28.337Z,2.40
2023-03-20T02:10:02.459Z,2.38
2023-03-20T02:12:50.362Z,2.39
2023-03-20T02:15:23.454Z,2.41
2023-03-20T02:18:10.352Z,2.37
2023-03-20T02:21:07.546Z,2.39
2023-03-20T02:24:13.338Z,2.39
2023-03-20T02:26:49.448Z,2.37
2023-03-20T02:30:14.343Z,2.36
2023-03-20T02:33:35.362Z,2.37
2023-03-20T02:36:45.338Z,2.35
2023-03-20T02:39:58.358Z,2.36
2023-03-20T02:43:20.348Z,2.39
2023-03-20T02:46:23.377Z,2.44
2023-03-20T02:49:22.362Z,2.49
2023-03-20T02:52:05.518Z,2.49
2023-03-20T02:55:00.358Z,2.49
2023-03-20T02:57:42.449Z,2.51
2023-03-20T03:00:44.350Z,2.51
2023-03-20T03:03:41.530Z,2.48
2023-03-20T03:06:36.352Z,2.47
2023-03-20T03:09:57.355Z,2.46
2023-03-20T03:12:57.367Z,2.46
2023-03-20T03:15:48.433Z,2.48
2023-03-20T03:18:30.452Z,2.49
2023-03-20T03:21:23.352Z,2.48
2023-03-20T03:23:56.486Z,2.47
2023-03-20T03:26:47.369Z,2.47
2023-03-20T03:29:24.775Z,2.48
2023-03-20T03:32:13.380Z,2.44
2023-03-20T03:34:46.917Z,2.42
2023-03-20T03:38:03.374Z,2.39
2023-03-20T03:40:48.474Z,2.36
2023-03-20T03:44:03.379Z,2.33
2023-03-20T03:46:54.490Z,2.27
2023-03-20T03:49:48.376Z,2.22
2023-03-20T03:52:26.475Z,2.21
2023-03-20T03:55:18.366Z,2.19
2023-03-20T03:58:04.395Z,2.16
2023-03-20T04:01:00.380Z,2.12
2023-03-20T04:03:57.406Z,2.08
2023-03-20T04:06:44.381Z,2.06
2023-03-20T04:09:17.521Z,2.06
2023-03-20T04:12:19.400Z,2.05
2023-03-20T04:15:13.375Z,2.00
2023-03-20T04:18:07.377Z,1.97
2023-03-20T04:20:55.405Z,1.93
2023-03-20T04:23:35.412Z,1.87
2023-03-20T04:26:29.376Z,1.83
2023-03-20T04:29:23.394Z,1.80
2023-03-20T04:32:10.393Z,1.80
2023-03-20T04:34:43.466Z,1.77
2023-03-20T04:37:30.410Z,1.75
2023-03-20T04:40:06.501Z,1.73
2023-03-20T04:42:53.407Z,1.73
2023-03-20T04:45:26.488Z,1.71
2023-03-20T04:48:13.408Z,1.67
2023-03-20T04:50:54.399Z,1.65
2023-03-20T04:53:48.401Z,1.65
2023-03-20T04:56:35.399Z,1.65
2023-03-20T04:59:08.494Z,1.68
2023-03-20T05:01:55.433Z,1.70
2023-03-20T05:04:28.636Z,1.73
2023-03-20T05:07:15.409Z,1.76
2023-03-20T05:09:55.405Z,1.78
2023-03-20T05:12:49.421Z,1.83
2023-03-20T05:15:36.617Z,1.89
2023-03-20T05:18:10.696Z,1.91
2023-03-20T05:20:57.480Z,1.95
2023-03-20T05:23:37.410Z,2.00
2023-03-20T05:26:31.397Z,2.08
2023-03-20T05:29:18.424Z,2.20
2023-03-20T05:31:51.573Z,2.28
2023-03-20T05:34:38.433Z,2.37
2023-03-20T05:37:18.415Z,2.43
2023-03-20T05:40:12.358Z,2.51
2023-03-20T05:43:06.427Z,2.61
2023-03-20T05:45:53.456Z,2.66
2023-03-20T05:48:26.585Z,2.75
2023-03-20T05:51:13.424Z,2.86
2023-03-20T05:53:46.526Z,2.98
2023-03-20T05:56:33.441Z,3.04
2023-03-20T05:59:06.627Z,3.11
2023-03-20T06:01:53.419Z,3.20
2023-03-20T06:04:33.404Z,3.29
2023-03-20T06:07:20.437Z,3.35
2023-03-20T06:10:00.415Z,3.41
2023-03-20T06:12:54.430Z,3.42
2023-03-20T06:15:48.477Z,3.44
2023-03-20T06:18:42.410Z,3.47
2023-03-20T06:21:29.450Z,3.51
2023-03-20T06:24:02.532Z,3.59
2023-03-20T06:26:49.442Z,3.67
2023-03-20T06:29:22.516Z,3.76
2023-03-20T06:32:09.437Z,3.86
2023-03-20T06:34:42.777Z,3.93
2023-03-20T06:37:29.424Z,4.03
2023-03-20T06:40:09.456Z,4.09
2023-03-20T06:43:03.429Z,4.12
2023-03-20T06:45:50.452Z,4.18
2023-03-20T06:48:23.563Z,4.26
2023-03-20T06:51:10.432Z,4.33
2023-03-20T06:53:44.315Z,4.41
2023-03-20T06:56:31.444Z,4.52
2023-03-20T06:59:04.540Z,4.60
2023-03-20T07:01:51.505Z,4.69
2023-03-20T07:04:24.605Z,4.81
2023-03-20T07:07:11.465Z,4.91
2023-03-20T07:09:45.284Z,5.05
2023-03-20T07:12:39.472Z,5.15
2023-03-20T07:15:26.458Z,5.33
2023-03-20T07:18:09.461Z,5.47
2023-03-20T07:21:05.449Z,5.63
2023-03-20T07:23:52.460Z,5.78
2023-03-20T07:26:28.598Z,5.93
2023-03-20T07:29:15.444Z,6.06
2023-03-20T07:31:48.716Z,6.25
2023-03-20T07:34:35.477Z,6.41
2023-03-20T07:37:08.617Z,6.61
2023-03-20T07:39:55.470Z,6.73
2023-03-20T07:42:35.453Z,6.86
2023-03-20T07:45:24.485Z,7.04
2023-03-20T07:48:04.541Z,7.17
2023-03-20T07:50:58.472Z,7.35
2023-03-20T07:53:45.476Z,7.58
2023-03-20T07:56:18.569Z,7.73
2023-03-20T07:59:05.472Z,7.90
2023-03-20T08:01:38.556Z,8.09
2023-03-20T08:04:27.457Z,8.26
2023-03-20T08:07:07.492Z,8.46
2023-03-20T08:09:55.442Z,8.66
2023-03-20T08:12:28.573Z,8.86
2023-03-20T08:15:16.743Z,9.00
2023-03-20T08:17:58.486Z,9.15
2023-03-20T08:20:52.481Z,9.36
2023-03-20T08:23:39.501Z,9.65
2023-03-20T08:26:12.700Z,9.90
2023-03-20T08:28:59.476Z,10.19
2023-03-20T08:31:33.130Z,10.54
2023-03-20T08:34:19.488Z,10.80
2023-03-20T08:36:59.504Z,11.11
2023-03-20T08:39:47.507Z,11.43
2023-03-20T08:42:22.853Z,11.75
2023-03-20T08:45:09.502Z,11.89
2023-03-20T08:47:42.569Z,11.98
2023-03-20T08:50:29.498Z,12.03
2023-03-20T08:53:02.622Z,12.15
2023-03-20T08:55:57.525Z,12.32
2023-03-20T08:58:30.735Z,12.57
2023-03-20T09:01:17.501Z,12.76
2023-03-20T09:03:57.500Z,12.95
2023-03-20T09:06:52.535Z,13.16
2023-03-20T09:09:46.510Z,13.46
2023-03-20T09:12:40.526Z,13.71
2023-03-20T09:15:28.377Z,13.88
2023-03-20T09:18:02.936Z,14.16
2023-03-20T09:20:50.517Z,14.38
2023-03-20T09:23:24.608Z,14.53
2023-03-20T09:26:11.498Z,14.64
2023-03-20T09:28:51.528Z,14.75
2023-03-20T09:31:38.563Z,14.90
2023-03-20T09:34:11.684Z,15.10
2023-03-20T09:36:58.523Z,15.14
2023-03-20T09:39:38.509Z,15.18
2023-03-20T09:42:32.524Z,15.20
2023-03-20T09:45:34.544Z,15.34
2023-03-20T09:48:46.517Z,15.37
2023-03-20T09:51:50.524Z,15.32
2023-03-20T09:54:23.687Z,15.29
2023-03-20T09:57:11.523Z,15.22
2023-03-20T09:59:44.971Z,15.19
2023-03-20T10:02:57.529Z,15.06
2023-03-20T10:05:41.510Z,15.05
2023-03-20T10:08:42.530Z,15.09
2023-03-20T10:11:46.533Z,15.15
2023-03-20T10:15:18.531Z,15.16
2023-03-20T10:18:13.517Z,15.15
2023-03-20T10:20:55.280Z,15.13
2023-03-20T10:24:10.618Z,15.10
2023-03-20T10:26:45.839Z,15.06
2023-03-20T10:29:53.545Z,15.10
2023-03-20T10:32:50.697Z,15.17
2023-03-20T10:35:52.591Z,15.22
2023-03-20T10:38:31.761Z,15.19
2023-03-20T10:41:27.539Z,15.12
2023-03-20T10:44:12.567Z,15.15
2023-03-20T10:47:09.589Z,15.27
2023-03-20T10:50:09.537Z,15.29
2023-03-20T10:53:00.575Z,15.21
2023-03-20T10:55:38.699Z,15.19
2023-03-20T10:58:30.545Z,15.09
2023-03-20T11:01:05.794Z,15.16
2023-03-20T11:03:52.627Z,15.20
2023-03-20T11:06:40.589Z,15.17
2023-03-20T11:09:39.576Z,15.09
2023-03-20T11:12:33.588Z,15.04
2023-03-20T11:15:34.564Z,15.01
2023-03-20T11:18:14.057Z,14.91
2023-03-20T11:21:04.571Z,14.85
2023-03-20T11:23:41.658Z,14.75
2023-03-20T11:26:43.681Z,14.83
2023-03-20T11:29:45.544Z,14.91
2023-03-20T11:32:46.662Z,14.98
2023-03-20T11:35:43.592Z,14.95
2023-03-20T11:38:30.596Z,14.98
2023-03-20T11:41:03.685Z,14.94
2023-03-20T11:43:50.570Z,15.02
2023-03-20T11:46:26.808Z,15.22
2023-03-20T11:49:27.584Z,15.41
2023-03-20T11:52:13.594Z,15.53
2023-03-20T11:55:03.595Z,15.54
2023-03-20T11:57:48.580Z,15.63
2023-03-20T12:00:49.605Z,15.71
2023-03-20T12:04:14.591Z,15.84
2023-03-20T12:07:25.598Z,15.97
2023-03-20T12:10:18.582Z,15.99
2023-03-20T12:13:23.613Z,15.98
2023-03-20T12:16:31.589Z,15.94
2023-03-20T12:19:39.599Z,15.95
2023-03-20T12:22:44.589Z,15.96
2023-03-20T12:25:28.806Z,16.01
2023-03-20T12:28:26.632Z,16.05
2023-03-20T12:31:13.133Z,15.98
2023-03-20T12:34:07.642Z,15.89
2023-03-20T12:36:49.685Z,15.84
2023-03-20T12:39:54.626Z,15.91
2023-03-20T12:42:30.988Z,15.95
2023-03-20T12:45:23.686Z,15.92
2023-03-20T12:48:36.636Z,15.79
2023-03-20T12:51:37.634Z,15.73
2023-03-20T12:54:48.616Z,15.69
2023-03-20T12:57:46.631Z,15.62
2023-03-20T13:00:39.107Z,15.52
2023-03-20T13:03:28.643Z,15.48
2023-03-20T13:06:17.646Z,15.49
2023-03-20T13:09:37.676Z,15.49
2023-03-20T13:12:39.644Z,15.49
2023-03-20T13:15:53.702Z,15.41
2023-03-20T13:18:51.642Z,15.42
2023-03-20T13:21:50.855Z,15.41
2023-03-20T13:24:56.664Z,15.42
2023-03-20T13:27:42.657Z,15.47
2023-03-20T13:30:47.646Z,15.47
2023-03-20T13:34:01.652Z,15.45
2023-03-20T13:37:24.432Z,15.50
2023-03-20T13:40:25.644Z,15.49
2023-03-20T13:43:31.662Z,15.47
2023-03-20T13:46:33.693Z,15.41
2023-03-20T13:49:29.671Z,15.42
2023-03-20T13:52:26.734Z,15.39
2023-03-20T13:55:47.679Z,15.37
2023-03-20T13:58:48.812Z,15.36
2023-03-20T14:01:59.710Z,15.37
2023-03-20T14:04:46.674Z,15.35
2023-03-20T14:07:44.541Z,15.30
2023-03-20T14:10:41.688Z,15.23
2023-03-20T14:13:24.951Z,15.14
2023-03-20T14:16:18.664Z,15.02
2023-03-20T14:19:03.651Z,14.90
2023-03-20T14:22:01.685Z,14.83
2023-03-20T14:24:55.670Z,14.77
2023-03-20T14:27:43.944Z,14.72
2023-03-20T14:30:37.843Z,14.64
2023-03-20T14:33:32.855Z,14.46
2023-03-20T14:36:27.681Z,14.30
2023-03-20T14:39:13.661Z,14.25
2023-03-20T14:42:10.704Z,14.14
2023-03-20T14:45:02.802Z,14.05
2023-03-20T14:47:49.702Z,13.88
2023-03-20T14:51:03.682Z,13.77
2023-03-20T14:53:50.680Z,13.69
2023-03-20T14:56:38.692Z,13.59
2023-03-20T14:59:30.706Z,13.48
2023-03-20T15:02:06.844Z,13.37
2023-03-20T15:04:53.680Z,13.28
2023-03-20T15:07:44.691Z,13.21
2023-03-20T15:10:39.685Z,13.08
2023-03-20T15:13:33.709Z,13.02
2023-03-20T15:16:31.089Z,12.97
2023-03-20T15:19:26.694Z,12.90
2023-03-20T15:22:00.953Z,12.84
2023-03-20T15:24:47.683Z,12.82
2023-03-20T15:27:21.186Z,12.78
2023-03-20T15:30:09.678Z,12.69
2023-03-20T15:32:46.108Z,12.64
2023-03-20T15:35:33.751Z,12.61
2023-03-20T15:38:19.703Z,12.55
2023-03-20T15:41:13.715Z,12.51
2023-03-20T15:44:07.706Z,12.47
2023-03-20T15:47:28.902Z,12.41
2023-03-20T15:50:26.704Z,12.35
2023-03-20T15:53:17.708Z,12.34
2023-03-20T15:56:16.980Z,12.31
2023-03-20T15:59:04.734Z,12.29
2023-03-20T16:01:38.897Z,12.25
2023-03-20T16:04:26.668Z,12.22
2023-03-20T16:07:07.002Z,12.21
2023-03-20T16:09:53.716Z,12.19
2023-03-20T16:12:35.123Z,12.19
2023-03-20T16:15:29.886Z,12.15
2023-03-20T16:18:13.714Z,12.12
2023-03-20T16:21:13.719Z,12.09
2023-03-20T16:24:03.716Z,12.04
2023-03-20T16:26:43.782Z,12.02
2023-03-20T16:29:40.726Z,11.98
2023-03-20T16:32:27.959Z,11.91
2023-03-20T16:35:03.878Z,11.85
2023-03-20T16:37:58.838Z,11.82
2023-03-20T16:40:35.171Z,11.78
2023-03-20T16:43:26.725Z,11.74
2023-03-20T16:46:01.870Z,11.70
2023-03-20T16:48:48.732Z,11.64
2023-03-20T16:51:36.301Z,11.60
2023-03-20T16:54:28.906Z,11.53
2023-03-20T16:57:10.718Z,11.48
2023-03-20T17:00:04.748Z,11.43
2023-03-20T17:02:58.745Z,11.40
2023-03-20T17:05:54.745Z,11.37
2023-03-20T17:08:55.781Z,11.34
2023-03-20T17:11:52.810Z,11.31
2023-03-20T17:14:53.116Z,11.26
2023-03-20T17:17:40.816Z,11.23
2023-03-20T17:20:18.224Z,11.20
2023-03-20T17:23:05.131Z,11.18
2023-03-20T17:25:45.785Z,11.13
2023-03-20T17:28:42.747Z,11.09
2023-03-20T17:31:27.789Z,11.04
2023-03-20T17:34:19.784Z,10.97
2023-03-20T17:36:52.978Z,10.94
2023-03-20T17:39:39.900Z,10.90
2023-03-20T17:42:26.592Z,10.85
2023-03-20T17:45:13.785Z,10.80
2023-03-20T17:47:55.783Z,10.77
2023-03-20T17:50:42.802Z,10.77
2023-03-20T17:53:42.796Z,10.72
2023-03-20T17:56:38.820Z,10.64
2023-03-20T17:59:26.822Z,10.57
2023-03-20T18:02:00.047Z,10.54
2023-03-20T18:04:46.823Z,10.51
2023-03-20T18:07:21.162Z,10.47
2023-03-20T18:10:07.885Z,10.43
2023-03-20T18:12:40.933Z,10.39
2023-03-20T18:15:30.829Z,10.37
2023-03-20T18:18:03.919Z,10.33
2023-03-20T18:20:50.829Z,10.30
2023-03-20T18:23:30.830Z,10.24
2023-03-20T18:26:34.815Z,10.18
2023-03-20T18:29:31.793Z,10.13
2023-03-20T18:32:25.785Z,10.09
2023-03-20T18:35:13.806Z,10.02
2023-03-20T18:37:48.974Z,9.97
2023-03-20T18:40:40.149Z,9.93
2023-03-20T18:43:20.825Z,9.91
2023-03-20T18:46:14.901Z,9.87
2023-03-20T18:49:04.823Z,9.86
2023-03-20T18:51:37.972Z,9.81
2023-03-20T18:54:24.821Z,9.78
2023-03-20T18:57:00.016Z,9.74
2023-03-20T18:59:46.820Z,9.68
2023-03-20T19:02:19.991Z,9.57
2023-03-20T19:05:06.830Z,9.43
2023-03-20T19:07:46.874Z,9.37
2023-03-20T19:10:52.821Z,9.27
2023-03-20T19:13:46.776Z,9.16
2023-03-20T19:16:41.883Z,9.05
2023-03-20T19:19:17.978Z,8.98
2023-03-20T19:22:05.198Z,8.89
2023-03-20T19:24:38.978Z,8.82
2023-03-20T19:27:25.823Z,8.75
2023-03-20T19:30:00.396Z,8.69
2023-03-20T19:32:48.954Z,8.63
2023-03-20T19:35:47.286Z,8.62
2023-03-20T19:38:31.633Z,8.57
2023-03-20T19:41:05.215Z,8.50
2023-03-20T19:43:53.996Z,8.40
2023-03-20T19:46:45.262Z,8.33
2023-03-20T19:49:32.423Z,8.24
2023-03-20T19:52:09.231Z,8.16
2023-03-20T19:55:02.643Z,8.10
2023-03-20T19:57:43.840Z,8.04
2023-03-20T20:03:46.865Z,8.01
2023-03-20T20:06:22.582Z,7.94
2023-03-20T20:09:10.878Z,7.88
2023-03-20T20:11:44.178Z,7.84
2023-03-20T20:14:30.858Z,7.82
2023-03-20T20:17:10.876Z,7.79
2023-03-20T20:20:07.011Z,7.77
2023-03-20T20:22:56.950Z,7.76
2023-03-20T20:25:36.852Z,7.70
2023-03-20T20:28:27.883Z,7.69
2023-03-20T20:31:05.974Z,7.68
2023-03-20T20:34:22.564Z,7.65
2023-03-20T20:40:06.914Z,7.67
2023-03-20T20:43:03.339Z,7.65
2023-03-20T20:46:02.930Z,7.59
2023-03-20T20:48:50.456Z,7.59
2023-03-20T20:51:23.986Z,7.61
2023-03-20T20:54:10.918Z,7.62
2023-03-20T20:56:44.013Z,7.66
2023-03-20T20:59:34.065Z,7.68
2023-03-20T21:02:15.636Z,7.71
2023-03-20T21:05:03.366Z,7.70
2023-03-20T21:07:36.997Z,7.73
2023-03-20T21:10:27.890Z,7.72
2023-03-20T21:13:01.078Z,7.69
2023-03-20T21:15:48.911Z,7.68
2023-03-20T21:18:28.927Z,7.69
2023-03-20T21:21:18.905Z,7.74
2023-03-20T21:23:55.400Z,7.76
2023-03-20T21:26:41.910Z,7.79
2023-03-20T21:29:21.892Z,7.80
2023-03-20T21:32:08.952Z,7.75
2023-03-20T21:34:43.976Z,7.77
2023-03-20T21:40:33.890Z,7.79
2023-03-20T21:43:28.875Z,7.80
2023-03-20T21:50:17.125Z,7.78
2023-03-20T21:56:13.291Z,7.77
2023-03-20T22:02:00.258Z,7.72
2023-03-20T22:08:38.155Z,7.67
2023-03-20T22:20:35.357Z,7.49
2023-03-20T22:23:51.649Z,7.47
2023-03-20T22:26:48.570Z,7.44
2023-03-20T22:32:35.018Z,7.36
2023-03-20T22:35:41.896Z,7.32
2023-03-20T22:44:43.825Z,7.07
2023-03-20T22:46:57.931Z,6.99
2023-03-20T22:49:51.937Z,6.93
2023-03-20T22:52:48.631Z,6.87
2023-03-20T22:55:33.946Z,6.84
2023-03-20T22:58:21.932Z,6.79
2023-03-20T23:01:01.963Z,6.74
2023-03-20T23:03:48.940Z,6.67
2023-03-20T23:06:31.051Z,6.64
2023-03-20T23:09:18.942Z,6.60
2023-03-20T23:11:52.061Z,6.56
2023-03-20T23:14:46.430Z,6.53
2023-03-20T23:17:33.934Z,6.51
2023-03-20T23:20:13.326Z,6.47
2023-03-20T23:23:02.978Z,6.44
2023-03-20T23:25:42.942Z,6.41
2023-03-20T23:28:36.938Z,6.41
2023-03-20T23:31:26.987Z,6.39
2023-03-20T23:34:08.924Z,6.39
2023-03-20T23:37:03.019Z,6.34
2023-03-20T23:39:49.938Z,6.34
2023-03-20T23:42:30.333Z,6.36
2023-03-20T23:45:20.087Z,6.35
2023-03-20T23:48:10.300Z,6.34
2023-03-20T23:50:57.947Z,6.34
2023-03-20T23:53:37.954Z,6.34
2023-03-20T23:56:31.997Z,6.33
2023-03-20T23:59:25.947Z,6.32
